createdAt,value
2023-07-11T00:00:15.662Z,27.09
2023-07-11T00:00:47.244Z,27.05
2023-07-11T00:01:18.890Z,27.04
2023-07-11T00:01:50.494Z,27.02
2023-07-11T00:02:21.962Z,27.02
2023-07-11T00:02:53.641Z,27.06
2023-07-11T00:03:25.274Z,27.05
2023-07-11T00:03:58.792Z,27.05
2023-07-11T00:04:30.307Z,27.01
2023-07-11T00:05:01.743Z,27.02
2023-07-11T00:05:33.194Z,27.06
2023-07-11T00:06:05.025Z,27.04
2023-07-11T00:06:36.694Z,27.00
2023-07-11T00:07:08.243Z,27.01
2023-07-11T00:07:39.766Z,27.02
2023-07-11T00:08:11.356Z,27.01
2023-07-11T00:08:42.821Z,27.04
2023-07-11T00:09:14.253Z,27.06
2023-07-11T00:09:45.726Z,27.02
2023-07-11T00:10:17.174Z,27.01
2023-07-11T00:10:48.581Z,27.01
2023-07-11T00:11:20.059Z,27.00
2023-07-11T00:11:51.563Z,26.98
2023-07-11T00:12:23.181Z,27.00
2023-07-11T00:12:54.619Z,27.01
2023-07-11T00:13:26.100Z,27.01
2023-07-11T00:13:57.577Z,27.03
2023-07-11T00:14:29.086Z,27.04
2023-07-11T00:15:00.574Z,27.01
2023-07-11T00:15:32.027Z,26.99
2023-07-11T00:16:03.656Z,27.00
2023-07-11T00:16:35.188Z,27.00
2023-07-11T00:17:06.859Z,26.98
2023-07-11T00:17:39.377Z,27.03
2023-07-11T00:18:10.892Z,27.01
2023-07-11T00:18:42.371Z,27.04
2023-07-11T00:19:13.834Z,27.02
2023-07-11T00:19:45.334Z,27.02
2023-07-11T00:20:16.804Z,27.03
2023-07-11T00:20:48.319Z,27.04
2023-07-11T00:21:19.791Z,27.00
2023-07-11T00:21:51.263Z,27.02
2023-07-11T00:22:22.792Z,27.03
2023-07-11T00:22:54.347Z,26.99
2023-07-11T00:23:25.913Z,27.01
2023-07-11T00:23:57.475Z,27.01
2023-07-11T00:24:28.973Z,27.00
2023-07-11T00:25:00.471Z,27.04
2023-07-11T00:25:31.928Z,27.01
2023-07-11T00:26:03.407Z,27.02
2023-07-11T00:26:34.893Z,27.02
2023-07-11T00:27:06.329Z,27.01
2023-07-11T00:27:37.837Z,26.97
2023-07-11T00:28:09.276Z,26.96
2023-07-11T00:28:40.696Z,27.00
2023-07-11T00:29:12.193Z,26.98
2023-07-11T00:29:43.625Z,26.96
2023-07-11T00:30:15.155Z,26.98
2023-07-11T00:30:46.668Z,26.98
2023-07-11T00:31:18.157Z,26.98
2023-07-11T00:31:49.668Z,27.00
2023-07-11T00:32:21.200Z,26.98
2023-07-11T00:32:52.762Z,26.98
2023-07-11T00:33:24.388Z,27.03
2023-07-11T00:33:56.150Z,27.02
2023-07-11T00:34:27.614Z,27.00
2023-07-11T00:34:59.045Z,26.98
2023-07-11T00:35:30.504Z,27.01
2023-07-11T00:36:01.995Z,27.01
2023-07-11T00:36:33.467Z,27.01
2023-07-11T00:37:04.932Z,27.03
2023-07-11T00:37:36.373Z,27.01
2023-07-11T00:38:07.875Z,27.02
2023-07-11T00:38:39.352Z,27.02
2023-07-11T00:39:10.803Z,27.00
2023-07-11T00:39:42.262Z,27.00
2023-07-11T00:40:13.698Z,27.01
2023-07-11T00:40:45.196Z,27.01
2023-07-11T00:41:16.688Z,27.00
2023-07-11T00:41:48.174Z,27.00
2023-07-11T00:42:19.781Z,26.99
2023-07-11T00:42:51.345Z,26.97
2023-07-11T00:43:22.925Z,26.98
2023-07-11T00:43:54.564Z,26.97
2023-07-11T00:44:26.270Z,26.98
2023-07-11T00:44:57.822Z,26.99
2023-07-11T00:45:29.242Z,27.01
2023-07-11T00:46:00.705Z,27.03
2023-07-11T00:46:32.178Z,27.01
2023-07-11T00:47:03.841Z,26.99
2023-07-11T00:47:35.806Z,27.01
2023-07-11T00:48:39.744Z,27.02
2023-07-11T00:49:10.975Z,27.04
2023-07-11T00:49:42.318Z,27.00
2023-07-11T00:50:13.848Z,27.04
2023-07-11T00:50:45.253Z,27.01
2023-07-11T00:51:16.666Z,27.01
2023-07-11T00:51:48.135Z,27.01
2023-07-11T00:52:19.536Z,27.02
2023-07-11T00:52:50.973Z,27.00
2023-07-11T00:53:22.383Z,27.00
2023-07-11T00:53:53.828Z,26.98
2023-07-11T00:54:25.378Z,27.01
2023-07-11T00:54:56.775Z,27.01
2023-07-11T00:55:28.224Z,27.01
2023-07-11T00:55:59.634Z,27.02
2023-07-11T00:56:31.185Z,27.02
2023-07-11T00:57:02.630Z,27.02
2023-07-11T00:57:34.108Z,26.97
2023-07-11T00:58:05.554Z,27.02
2023-07-11T00:58:36.973Z,26.99
2023-07-11T00:59:08.465Z,27.02
2023-07-11T00:59:39.908Z,26.98
2023-07-11T01:00:11.374Z,26.98
2023-07-11T01:00:42.877Z,26.99
2023-07-11T01:01:14.413Z,27.00
2023-07-11T01:01:45.976Z,27.00
2023-07-11T01:02:17.405Z,27.00
2023-07-11T01:02:48.906Z,26.97
2023-07-11T01:03:20.490Z,26.95
2023-07-11T01:03:51.986Z,26.97
2023-07-11T01:04:23.623Z,26.98
2023-07-11T01:04:55.092Z,26.97
2023-07-11T01:05:26.530Z,26.96
2023-07-11T01:05:57.961Z,26.95
2023-07-11T01:06:29.369Z,26.94
2023-07-11T01:07:00.798Z,26.96
2023-07-11T01:07:32.279Z,26.95
2023-07-11T01:08:03.772Z,26.94
2023-07-11T01:08:35.219Z,26.96
2023-07-11T01:09:06.662Z,26.95
2023-07-11T01:09:38.123Z,26.93
2023-07-11T01:10:09.617Z,26.92
2023-07-11T01:10:41.111Z,26.94
2023-07-11T01:11:12.519Z,26.94
2023-07-11T01:11:43.985Z,26.92
2023-07-11T01:12:15.398Z,26.91
2023-07-11T01:12:46.830Z,26.90
2023-07-11T01:13:18.303Z,26.92
2023-07-11T01:13:49.764Z,26.92
2023-07-11T01:14:21.311Z,26.90
2023-07-11T01:14:52.905Z,26.90
2023-07-11T01:15:24.440Z,26.90
2023-07-11T01:15:55.872Z,26.90
2023-07-11T01:16:27.577Z,26.92
2023-07-11T01:16:59.061Z,26.91
2023-07-11T01:17:30.614Z,26.92
2023-07-11T01:18:02.176Z,26.91
2023-07-11T01:18:33.623Z,26.92
2023-07-11T01:19:05.103Z,26.93
2023-07-11T01:19:36.570Z,26.93
2023-07-11T01:20:08.031Z,26.91
2023-07-11T01:20:39.567Z,26.91
2023-07-11T01:21:10.995Z,26.94
2023-07-11T01:21:42.447Z,26.92
2023-07-11T01:22:13.931Z,26.92
2023-07-11T01:22:45.363Z,26.91
2023-07-11T01:23:16.832Z,26.88
2023-07-11T01:23:48.770Z,26.90
2023-07-11T01:24:20.553Z,26.90
2023-07-11T01:24:51.974Z,26.90
2023-07-11T01:25:23.375Z,26.91
2023-07-11T01:25:54.788Z,26.91
2023-07-11T01:26:26.229Z,26.90
2023-07-11T01:26:57.614Z,26.90
2023-07-11T01:27:29.079Z,26.90
2023-07-11T01:28:00.561Z,26.90
2023-07-11T01:28:32.013Z,26.91
2023-07-11T01:29:03.425Z,26.90
2023-07-11T01:29:34.813Z,26.90
2023-07-11T01:30:06.262Z,26.89
2023-07-11T01:30:37.678Z,26.89
2023-07-11T01:31:09.255Z,26.90
2023-07-11T01:31:40.721Z,26.89
2023-07-11T01:32:12.177Z,26.91
2023-07-11T01:32:43.604Z,26.91
2023-07-11T01:33:15.079Z,26.92
2023-07-11T01:33:46.642Z,26.90
2023-07-11T01:34:18.075Z,26.90
2023-07-11T01:34:49.572Z,26.90
2023-07-11T01:35:21.005Z,26.89
2023-07-11T01:35:52.500Z,26.90
2023-07-11T01:36:23.964Z,26.91
2023-07-11T01:36:55.348Z,26.90
2023-07-11T01:37:26.775Z,26.90
2023-07-11T01:37:58.206Z,26.91
2023-07-11T01:38:29.635Z,26.90
2023-07-11T01:39:01.153Z,26.90
2023-07-11T01:39:32.599Z,26.89
2023-07-11T01:40:04.019Z,26.90
2023-07-11T01:40:35.480Z,26.90
2023-07-11T01:41:07.017Z,26.89
2023-07-11T01:41:38.436Z,26.89
2023-07-11T01:42:09.856Z,26.90
2023-07-11T01:42:41.271Z,26.91
2023-07-11T01:43:12.837Z,26.89
2023-07-11T01:43:44.253Z,26.90
2023-07-11T01:44:15.749Z,26.91
2023-07-11T01:44:47.214Z,26.89
2023-07-11T01:45:18.716Z,26.93
2023-07-11T01:45:50.274Z,26.90
2023-07-11T01:46:21.721Z,26.90
2023-07-11T01:46:53.262Z,26.91
2023-07-11T01:47:24.722Z,26.89
2023-07-11T01:47:56.239Z,26.88
2023-07-11T01:48:27.738Z,26.89
2023-07-11T01:48:59.206Z,26.91
2023-07-11T01:49:30.615Z,26.90
2023-07-11T01:50:02.278Z,26.89
2023-07-11T01:50:33.689Z,26.90
2023-07-11T01:51:05.173Z,26.92
2023-07-11T01:51:36.670Z,26.91
2023-07-11T01:52:08.095Z,26.91
2023-07-11T01:52:39.514Z,26.90
2023-07-11T01:53:10.975Z,26.91
2023-07-11T01:53:42.421Z,26.90
2023-07-11T01:54:13.846Z,26.88
2023-07-11T01:54:45.291Z,26.91
2023-07-11T01:55:16.781Z,26.89
2023-07-11T01:55:48.243Z,26.89
2023-07-11T01:56:19.695Z,26.90
2023-07-11T01:56:51.118Z,26.90
2023-07-11T01:57:22.569Z,26.90
2023-07-11T01:57:53.990Z,26.90
2023-07-11T01:58:25.436Z,26.90
2023-07-11T01:58:56.882Z,26.89
2023-07-11T01:59:28.328Z,26.88
2023-07-11T01:59:59.779Z,26.90
2023-07-11T02:00:31.316Z,26.88
2023-07-11T02:01:02.741Z,26.88
2023-07-11T02:01:34.293Z,26.88
2023-07-11T02:02:05.771Z,26.89
2023-07-11T02:02:37.301Z,26.89
2023-07-11T02:03:08.857Z,26.88
2023-07-11T02:03:40.366Z,26.87
2023-07-11T02:04:11.836Z,26.88
2023-07-11T02:04:43.251Z,26.88
2023-07-11T02:05:14.668Z,26.87
2023-07-11T02:05:46.214Z,26.87
2023-07-11T02:06:17.632Z,26.86
2023-07-11T02:06:49.077Z,26.88
2023-07-11T02:07:20.528Z,26.87
2023-07-11T02:07:51.948Z,26.87
2023-07-11T02:08:23.370Z,26.88
2023-07-11T02:08:54.911Z,26.90
2023-07-11T02:09:26.401Z,26.88
2023-07-11T02:09:57.972Z,26.88
2023-07-11T02:10:29.427Z,26.89
2023-07-11T02:11:01.045Z,26.89
2023-07-11T02:11:32.510Z,26.88
2023-07-11T02:12:03.913Z,26.89
2023-07-11T02:12:35.366Z,26.87
2023-07-11T02:13:06.931Z,26.89
2023-07-11T02:13:38.463Z,26.89
2023-07-11T02:14:09.993Z,26.89
2023-07-11T02:14:41.467Z,26.89
2023-07-11T02:15:12.925Z,26.91
2023-07-11T02:15:44.362Z,26.88
2023-07-11T02:16:15.906Z,26.89
2023-07-11T02:16:47.473Z,26.90
2023-07-11T02:17:19.120Z,26.88
2023-07-11T02:17:50.818Z,26.90
2023-07-11T02:18:22.383Z,26.90
2023-07-11T02:18:53.825Z,26.88
2023-07-11T02:19:25.363Z,26.88
2023-07-11T02:19:56.879Z,26.87
2023-07-11T02:20:28.312Z,26.86
2023-07-11T02:20:59.714Z,26.88
2023-07-11T02:21:31.178Z,26.86
2023-07-11T02:22:02.660Z,26.86
2023-07-11T02:22:34.293Z,26.87
2023-07-11T02:23:05.859Z,26.86
2023-07-11T02:23:37.299Z,26.89
2023-07-11T02:24:08.818Z,26.88
2023-07-11T02:24:40.357Z,26.90
2023-07-11T02:25:11.891Z,26.91
2023-07-11T02:25:43.402Z,26.89
2023-07-11T02:26:14.863Z,26.88
2023-07-11T02:26:46.374Z,26.89
2023-07-11T02:27:17.862Z,26.89
2023-07-11T02:27:49.350Z,26.90
2023-07-11T02:28:20.816Z,26.89
2023-07-11T02:28:52.224Z,26.89
2023-07-11T02:29:23.632Z,26.86
2023-07-11T02:29:55.056Z,26.88
2023-07-11T02:30:26.456Z,26.89
2023-07-11T02:30:57.869Z,26.88
2023-07-11T02:31:29.378Z,26.88
2023-07-11T02:32:01.006Z,26.88
2023-07-11T02:32:32.613Z,26.89
2023-07-11T02:33:04.137Z,26.89
2023-07-11T02:33:35.552Z,26.87
2023-07-11T02:34:06.999Z,26.86
2023-07-11T02:34:38.452Z,26.87
2023-07-11T02:35:09.888Z,26.87
2023-07-11T02:35:41.331Z,26.88
2023-07-11T02:36:12.858Z,26.87
2023-07-11T02:36:44.315Z,26.89
2023-07-11T02:37:15.890Z,26.89
2023-07-11T02:37:47.369Z,26.88
2023-07-11T02:38:18.899Z,26.89
2023-07-11T02:38:50.297Z,26.88
2023-07-11T02:39:21.779Z,26.88
2023-07-11T02:39:53.175Z,26.87
2023-07-11T02:40:24.637Z,26.87
2023-07-11T02:40:56.120Z,26.88
2023-07-11T02:41:27.612Z,26.88
2023-07-11T02:41:59.284Z,26.87
2023-07-11T02:42:30.692Z,26.86
2023-07-11T02:43:02.148Z,26.87
2023-07-11T02:43:33.567Z,26.88
2023-07-11T02:44:04.990Z,26.88
2023-07-11T02:44:36.437Z,26.89
2023-07-11T02:45:07.877Z,26.89
2023-07-11T02:45:39.346Z,26.89
2023-07-11T02:46:10.940Z,26.89
2023-07-11T02:46:42.396Z,26.87
2023-07-11T02:47:13.774Z,26.87
2023-07-11T02:47:45.312Z,26.87
2023-07-11T02:48:16.737Z,26.89
2023-07-11T02:48:48.147Z,26.87
2023-07-11T02:49:19.576Z,26.88
2023-07-11T02:49:51.007Z,26.89
2023-07-11T02:50:22.432Z,26.88
2023-07-11T02:50:53.869Z,26.90
2023-07-11T02:51:25.283Z,26.91
2023-07-11T02:51:56.763Z,26.89
2023-07-11T02:52:28.229Z,26.89
2023-07-11T02:52:59.745Z,26.90
2023-07-11T02:53:31.176Z,26.88
2023-07-11T02:54:02.638Z,26.86
2023-07-11T02:54:34.061Z,26.89
2023-07-11T02:55:05.468Z,26.89
2023-07-11T02:55:36.928Z,26.89
2023-07-11T02:56:08.789Z,26.87
2023-07-11T02:56:40.429Z,26.91
2023-07-11T02:57:11.873Z,26.89
2023-07-11T02:57:43.287Z,26.90
2023-07-11T02:58:14.692Z,26.90
2023-07-11T02:58:46.241Z,26.89
2023-07-11T02:59:17.676Z,26.86
2023-07-11T02:59:49.100Z,26.86
2023-07-11T03:00:20.540Z,26.88
2023-07-11T03:00:52.013Z,26.88
2023-07-11T03:01:23.541Z,26.92
2023-07-11T03:01:54.986Z,26.88
2023-07-11T03:02:26.491Z,26.89
2023-07-11T03:02:57.950Z,26.89
2023-07-11T03:03:29.439Z,26.88
2023-07-11T03:04:00.857Z,26.88
2023-07-11T03:04:32.311Z,26.89
2023-07-11T03:05:04.049Z,26.89
2023-07-11T03:05:36.308Z,26.92
2023-07-11T03:06:08.055Z,26.90
2023-07-11T03:06:39.665Z,26.89
2023-07-11T03:07:11.064Z,26.91
2023-07-11T03:07:42.540Z,26.89
2023-07-11T03:08:13.955Z,26.90
2023-07-11T03:08:45.389Z,26.92
2023-07-11T03:09:16.844Z,26.92
2023-07-11T03:09:48.297Z,26.95
2023-07-11T03:10:19.694Z,26.91
2023-07-11T03:10:51.142Z,26.91
2023-07-11T03:11:22.550Z,26.90
2023-07-11T03:11:54.007Z,26.92
2023-07-11T03:12:25.481Z,26.90
2023-07-11T03:12:56.914Z,26.92
2023-07-11T03:13:28.428Z,26.91
2023-07-11T03:14:00.052Z,26.90
2023-07-11T03:14:31.596Z,26.91
2023-07-11T03:15:04.600Z,26.89
2023-07-11T03:15:36.434Z,26.92
2023-07-11T03:16:08.091Z,26.89
2023-07-11T03:16:39.735Z,26.91
2023-07-11T03:17:11.258Z,26.93
2023-07-11T03:17:42.828Z,26.91
2023-07-11T03:18:14.340Z,26.90
2023-07-11T03:18:45.911Z,26.93
2023-07-11T03:19:17.401Z,26.92
2023-07-11T03:19:48.765Z,26.93
2023-07-11T03:20:20.158Z,26.92
2023-07-11T03:20:51.626Z,26.90
2023-07-11T03:21:23.076Z,26.90
2023-07-11T03:21:54.482Z,26.91
2023-07-11T03:22:25.916Z,26.94
2023-07-11T03:22:57.336Z,26.95
2023-07-11T03:23:28.810Z,26.92
2023-07-11T03:24:00.295Z,26.93
2023-07-11T03:24:31.758Z,26.90
2023-07-11T03:25:03.181Z,26.91
2023-07-11T03:25:34.648Z,26.90
2023-07-11T03:26:06.400Z,26.91
2023-07-11T03:26:38.130Z,26.89
2023-07-11T03:27:09.674Z,26.91
2023-07-11T03:27:41.131Z,26.93
2023-07-11T03:28:12.647Z,26.94
2023-07-11T03:28:44.101Z,26.94
2023-07-11T03:29:15.488Z,26.91
2023-07-11T03:29:46.927Z,26.91
2023-07-11T03:30:18.390Z,26.91
2023-07-11T03:30:49.985Z,26.92
2023-07-11T03:31:21.560Z,26.92
2023-07-11T03:31:53.054Z,26.91
2023-07-11T03:32:24.487Z,26.93
2023-07-11T03:32:56.107Z,26.93
2023-07-11T03:33:27.575Z,26.92
2023-07-11T03:33:59.063Z,26.91
2023-07-11T03:34:30.503Z,26.89
2023-07-11T03:35:03.842Z,26.88
2023-07-11T03:35:35.578Z,26.89
2023-07-11T03:36:07.254Z,26.88
2023-07-11T03:36:38.877Z,26.89
2023-07-11T03:37:10.317Z,26.91
2023-07-11T03:37:41.800Z,26.94
2023-07-11T03:38:13.239Z,26.89
2023-07-11T03:38:44.699Z,26.89
2023-07-11T03:39:16.193Z,26.87
2023-07-11T03:39:47.619Z,26.88
2023-07-11T03:40:19.093Z,26.89
2023-07-11T03:40:50.538Z,26.89
2023-07-11T03:41:21.945Z,26.92
2023-07-11T03:41:53.443Z,26.88
2023-07-11T03:42:24.869Z,26.89
2023-07-11T03:42:56.404Z,26.89
2023-07-11T03:43:27.885Z,26.86
2023-07-11T03:43:59.310Z,26.90
2023-07-11T03:44:30.703Z,26.88
2023-07-11T03:45:02.098Z,26.90
2023-07-11T03:45:33.512Z,26.93
2023-07-11T03:46:05.084Z,26.91
2023-07-11T03:46:36.639Z,26.92
2023-07-11T03:47:08.189Z,26.94
2023-07-11T03:47:39.634Z,26.92
2023-07-11T03:48:11.113Z,26.90
2023-07-11T03:48:42.599Z,26.89
2023-07-11T03:49:14.033Z,26.89
2023-07-11T03:49:45.424Z,26.88
2023-07-11T03:50:16.850Z,26.91
2023-07-11T03:50:48.260Z,26.90
2023-07-11T03:51:19.682Z,26.93
2023-07-11T03:51:51.107Z,26.92
2023-07-11T03:52:22.535Z,26.92
2023-07-11T03:52:54.023Z,26.90
2023-07-11T03:53:25.442Z,26.92
2023-07-11T03:53:57.010Z,26.92
2023-07-11T03:54:28.500Z,26.91
2023-07-11T03:54:59.972Z,26.91
2023-07-11T03:55:31.407Z,26.91
2023-07-11T03:56:02.830Z,26.93
2023-07-11T03:56:34.397Z,26.94
2023-07-11T03:57:05.832Z,26.93
2023-07-11T03:57:37.274Z,26.92
2023-07-11T03:58:08.748Z,26.90
2023-07-11T03:58:40.153Z,26.91
2023-07-11T03:59:11.602Z,26.93
2023-07-11T03:59:43.001Z,26.94
2023-07-11T04:00:14.413Z,26.94
2023-07-11T04:00:46.542Z,26.92
2023-07-11T04:01:18.168Z,26.92
2023-07-11T04:01:49.615Z,26.90
2023-07-11T04:02:21.061Z,26.97
2023-07-11T04:02:52.645Z,26.93
2023-07-11T04:03:24.269Z,26.92
2023-07-11T04:03:55.857Z,26.92
2023-07-11T04:04:27.576Z,26.92
2023-07-11T04:04:59.069Z,26.93
2023-07-11T04:05:30.635Z,26.95
2023-07-11T04:06:02.024Z,26.93
2023-07-11T04:06:33.464Z,26.94
2023-07-11T04:07:04.855Z,26.92
2023-07-11T04:07:36.355Z,26.93
2023-07-11T04:08:07.778Z,26.92
2023-07-11T04:08:39.235Z,26.90
2023-07-11T04:09:10.625Z,26.90
2023-07-11T04:09:42.136Z,26.93
2023-07-11T04:10:13.676Z,26.90
2023-07-11T04:10:45.135Z,26.92
2023-07-11T04:11:16.670Z,26.90
2023-07-11T04:11:48.118Z,26.91
2023-07-11T04:12:19.596Z,26.93
2023-07-11T04:12:51.002Z,26.95
2023-07-11T04:13:22.423Z,26.95
2023-07-11T04:13:53.854Z,26.94
2023-07-11T04:14:25.376Z,26.91
2023-07-11T04:14:56.906Z,26.96
2023-07-11T04:15:28.485Z,26.92
2023-07-11T04:15:59.910Z,26.90
2023-07-11T04:16:31.452Z,26.92
2023-07-11T04:17:03.041Z,26.92
2023-07-11T04:17:34.574Z,26.91
2023-07-11T04:18:05.989Z,26.92
2023-07-11T04:18:37.563Z,26.88
2023-07-11T04:19:09.007Z,26.88
2023-07-11T04:19:40.487Z,26.91
2023-07-11T04:20:11.986Z,26.90
2023-07-11T04:20:43.531Z,26.90
2023-07-11T04:21:14.994Z,26.90
2023-07-11T04:21:46.436Z,26.93
2023-07-11T04:22:17.917Z,26.92
2023-07-11T04:22:49.385Z,26.91
2023-07-11T04:23:20.832Z,26.92
2023-07-11T04:23:52.250Z,26.91
2023-07-11T04:24:23.663Z,26.91
2023-07-11T04:24:55.141Z,26.93
2023-07-11T04:25:26.562Z,26.91
2023-07-11T04:25:58.051Z,26.94
2023-07-11T04:26:29.441Z,26.91
2023-07-11T04:27:00.912Z,26.91
2023-07-11T04:27:32.422Z,26.89
2023-07-11T04:28:03.894Z,26.89
2023-07-11T04:28:35.459Z,26.90
2023-07-11T04:29:06.934Z,26.90
2023-07-11T04:29:38.350Z,26.88
2023-07-11T04:30:09.778Z,26.90
2023-07-11T04:30:41.285Z,26.88
2023-07-11T04:31:12.866Z,26.90
2023-07-11T04:31:44.388Z,26.90
2023-07-11T04:32:15.795Z,26.91
2023-07-11T04:32:47.262Z,26.92
2023-07-11T04:33:19.321Z,26.93
2023-07-11T04:33:50.927Z,26.92
2023-07-11T04:34:22.436Z,26.93
2023-07-11T04:34:53.852Z,26.90
2023-07-11T04:35:25.317Z,26.91
2023-07-11T04:35:56.829Z,26.90
2023-07-11T04:36:28.325Z,26.90
2023-07-11T04:36:59.739Z,26.91
2023-07-11T04:37:31.225Z,26.93
2023-07-11T04:38:02.631Z,26.93
2023-07-11T04:38:34.192Z,26.92
2023-07-11T04:39:05.670Z,26.93
2023-07-11T04:39:37.122Z,26.92
2023-07-11T04:40:08.603Z,26.90
2023-07-11T04:40:40.063Z,26.91
2023-07-11T04:41:11.509Z,26.92
2023-07-11T04:41:42.970Z,26.96
2023-07-11T04:42:14.420Z,26.95
2023-07-11T04:42:45.934Z,26.93
2023-07-11T04:43:17.399Z,26.97
2023-07-11T04:43:48.840Z,26.95
2023-07-11T04:44:20.282Z,26.93
2023-07-11T04:44:51.711Z,26.98
2023-07-11T04:45:23.152Z,26.96
2023-07-11T04:45:54.654Z,26.97
2023-07-11T04:46:26.101Z,26.96
2023-07-11T04:46:57.601Z,26.97
2023-07-11T04:47:29.177Z,26.99
2023-07-11T04:48:00.675Z,26.98
2023-07-11T04:48:32.113Z,26.98
2023-07-11T04:49:03.539Z,26.97
2023-07-11T04:49:35.034Z,26.96
2023-07-11T04:50:06.485Z,26.97
2023-07-11T04:50:37.938Z,26.95
2023-07-11T04:51:09.408Z,26.97
2023-07-11T04:51:40.953Z,26.97
2023-07-11T04:52:12.422Z,26.98
2023-07-11T04:52:43.878Z,26.98
2023-07-11T04:53:15.339Z,27.01
2023-07-11T04:53:46.812Z,26.99
2023-07-11T04:54:18.260Z,27.00
2023-07-11T04:54:49.708Z,27.02
2023-07-11T04:55:21.128Z,27.02
2023-07-11T04:55:52.560Z,26.99
2023-07-11T04:56:24.022Z,26.97
2023-07-11T04:56:55.515Z,26.99
2023-07-11T04:57:26.968Z,27.01
2023-07-11T04:57:58.441Z,27.01
2023-07-11T04:58:29.934Z,27.05
2023-07-11T04:59:01.361Z,27.00
2023-07-11T04:59:32.869Z,26.99
2023-07-11T05:00:04.321Z,26.98
2023-07-11T05:00:35.752Z,26.99
2023-07-11T05:01:07.155Z,27.00
2023-07-11T05:01:38.687Z,26.97
2023-07-11T05:02:10.553Z,26.97
2023-07-11T05:02:42.057Z,27.01
2023-07-11T05:03:13.536Z,26.98
2023-07-11T05:03:45.013Z,27.04
2023-07-11T05:04:16.666Z,27.02
2023-07-11T05:04:48.219Z,27.08
2023-07-11T05:05:19.753Z,27.00
2023-07-11T05:05:51.176Z,26.99
2023-07-11T05:06:22.629Z,26.99
2023-07-11T05:06:54.047Z,26.99
2023-07-11T05:07:25.548Z,27.00
2023-07-11T05:07:57.035Z,26.99
2023-07-11T05:08:28.428Z,27.01
2023-07-11T05:08:59.878Z,27.00
2023-07-11T05:09:31.339Z,26.98
2023-07-11T05:10:02.758Z,27.01
2023-07-11T05:10:34.253Z,26.99
2023-07-11T05:11:05.674Z,26.99
2023-07-11T05:11:37.129Z,26.99
2023-07-11T05:12:08.642Z,27.02
2023-07-11T05:12:40.144Z,26.97
2023-07-11T05:13:13.008Z,27.02
2023-07-11T05:13:45.815Z,27.03
2023-07-11T05:14:17.385Z,26.99
2023-07-11T05:14:48.915Z,27.01
2023-07-11T05:15:20.320Z,27.02
2023-07-11T05:15:51.924Z,27.02
2023-07-11T05:16:23.517Z,27.01
2023-07-11T05:16:55.021Z,27.01
2023-07-11T05:17:26.531Z,27.03
2023-07-11T05:17:58.183Z,26.98
2023-07-11T05:18:29.627Z,27.04
2023-07-11T05:19:01.078Z,27.02
2023-07-11T05:19:32.528Z,27.02
2023-07-11T05:20:03.942Z,27.04
2023-07-11T05:20:35.376Z,27.01
2023-07-11T05:21:06.843Z,26.99
2023-07-11T05:21:38.288Z,27.02
2023-07-11T05:22:09.781Z,27.02
2023-07-11T05:22:41.233Z,27.04
2023-07-11T05:23:12.765Z,27.06
2023-07-11T05:23:44.246Z,27.08
2023-07-11T05:24:15.641Z,27.06
2023-07-11T05:24:47.120Z,27.06
2023-07-11T05:25:18.558Z,27.03
2023-07-11T05:25:50.000Z,27.04
2023-07-11T05:26:21.428Z,27.03
2023-07-11T05:26:52.842Z,27.01
2023-07-11T05:27:24.278Z,27.03
2023-07-11T05:27:55.731Z,27.02
2023-07-11T05:28:27.178Z,27.06
2023-07-11T05:28:58.652Z,27.07
2023-07-11T05:29:30.086Z,27.08
2023-07-11T05:30:01.469Z,27.01
2023-07-11T05:30:32.910Z,27.02
2023-07-11T05:31:04.442Z,27.03
2023-07-11T05:31:35.931Z,27.12
2023-07-11T05:32:07.565Z,27.09
2023-07-11T05:32:39.116Z,27.06
2023-07-11T05:33:10.531Z,27.07
2023-07-11T05:33:42.012Z,27.04
2023-07-11T05:34:13.414Z,27.07
2023-07-11T05:34:44.821Z,27.06
2023-07-11T05:35:16.386Z,27.07
2023-07-11T05:35:47.869Z,27.08
2023-07-11T05:36:19.412Z,27.03
2023-07-11T05:36:50.812Z,27.02
2023-07-11T05:37:22.264Z,27.07
2023-07-11T05:37:53.686Z,27.01
2023-07-11T05:38:25.078Z,27.03
2023-07-11T05:38:56.632Z,27.02
2023-07-11T05:39:28.062Z,27.05
2023-07-11T05:39:59.529Z,27.06
2023-07-11T05:40:30.941Z,27.07
2023-07-11T05:41:02.385Z,27.09
2023-07-11T05:41:33.877Z,27.10
2023-07-11T05:42:05.324Z,27.04
2023-07-11T05:42:36.770Z,27.09
2023-07-11T05:43:08.250Z,27.11
2023-07-11T05:43:39.682Z,27.09
2023-07-11T05:44:11.104Z,27.09
2023-07-11T05:44:42.548Z,27.15
2023-07-11T05:45:14.029Z,27.14
2023-07-11T05:45:45.576Z,27.12
2023-07-11T05:46:17.067Z,27.12
2023-07-11T05:46:48.834Z,27.15
2023-07-11T05:47:20.413Z,27.08
2023-07-11T05:47:51.920Z,27.08
2023-07-11T05:48:23.451Z,27.09
2023-07-11T05:48:54.894Z,27.08
2023-07-11T05:49:26.371Z,27.07
2023-07-11T05:49:57.839Z,27.07
2023-07-11T05:50:29.257Z,27.09
2023-07-11T05:51:00.714Z,27.09
2023-07-11T05:51:32.180Z,27.15
2023-07-11T05:52:03.762Z,27.12
2023-07-11T05:52:35.266Z,27.11
2023-07-11T05:53:06.691Z,27.12
2023-07-11T05:53:38.115Z,27.04
2023-07-11T05:54:09.649Z,27.13
2023-07-11T05:54:41.144Z,27.14
2023-07-11T05:55:12.638Z,27.09
2023-07-11T05:55:44.124Z,27.11
2023-07-11T05:56:15.613Z,27.06
2023-07-11T05:56:47.239Z,27.11
2023-07-11T05:57:18.744Z,27.08
2023-07-11T05:57:50.200Z,27.05
2023-07-11T05:58:21.716Z,27.06
2023-07-11T05:58:53.153Z,27.07
2023-07-11T05:59:24.648Z,27.04
2023-07-11T05:59:56.060Z,27.06
2023-07-11T06:00:27.514Z,27.07
2023-07-11T06:00:58.947Z,27.04
2023-07-11T06:01:30.881Z,27.02
2023-07-11T06:02:02.648Z,27.02
2023-07-11T06:02:34.562Z,27.01
2023-07-11T06:03:06.025Z,27.01
2023-07-11T06:03:37.543Z,27.02
2023-07-11T06:04:09.113Z,27.04
2023-07-11T06:04:40.768Z,27.03
2023-07-11T06:05:12.210Z,27.07
2023-07-11T06:05:43.775Z,27.03
2023-07-11T06:06:15.269Z,27.09
2023-07-11T06:06:46.675Z,27.10
2023-07-11T06:07:18.088Z,27.08
2023-07-11T06:07:49.572Z,27.09
2023-07-11T06:08:21.045Z,27.06
2023-07-11T06:08:52.507Z,27.04
2023-07-11T06:09:24.017Z,27.02
2023-07-11T06:09:57.427Z,27.04
2023-07-11T06:10:29.051Z,27.02
2023-07-11T06:11:00.535Z,27.01
2023-07-11T06:11:31.981Z,26.99
2023-07-11T06:12:03.439Z,27.01
2023-07-11T06:12:34.898Z,27.00
2023-07-11T06:13:06.436Z,27.02
2023-07-11T06:13:38.095Z,27.05
2023-07-11T06:14:09.636Z,27.04
2023-07-11T06:14:41.130Z,27.02
2023-07-11T06:15:12.728Z,27.01
2023-07-11T06:15:44.334Z,27.07
2023-07-11T06:16:15.943Z,27.08
2023-07-11T06:16:50.826Z,27.09
2023-07-11T06:17:23.208Z,27.02
2023-07-11T06:17:54.832Z,27.03
2023-07-11T06:18:26.297Z,27.02
2023-07-11T06:18:57.818Z,27.03
2023-07-11T06:19:29.254Z,27.07
2023-07-11T06:20:00.722Z,27.04
2023-07-11T06:20:32.163Z,27.04
2023-07-11T06:21:03.688Z,27.02
2023-07-11T06:21:35.154Z,27.03
2023-07-11T06:22:08.865Z,27.01
2023-07-11T06:22:40.648Z,27.04
2023-07-11T06:23:12.067Z,27.02
2023-07-11T06:23:43.578Z,27.01
2023-07-11T06:24:15.028Z,27.01
2023-07-11T06:24:46.441Z,27.00
2023-07-11T06:25:17.912Z,26.99
2023-07-11T06:25:49.320Z,26.96
2023-07-11T06:26:20.773Z,26.98
2023-07-11T06:26:52.229Z,26.97
2023-07-11T06:27:23.699Z,27.06
2023-07-11T06:27:55.176Z,27.00
2023-07-11T06:28:26.638Z,27.00
2023-07-11T06:28:58.107Z,27.00
2023-07-11T06:29:29.659Z,27.01
2023-07-11T06:30:01.179Z,27.03
2023-07-11T06:30:32.618Z,27.00
2023-07-11T06:31:06.489Z,26.99
2023-07-11T06:31:39.217Z,27.04
2023-07-11T06:32:10.763Z,27.02
2023-07-11T06:32:42.372Z,26.99
2023-07-11T06:33:13.829Z,26.98
2023-07-11T06:33:45.345Z,27.01
2023-07-11T06:34:16.733Z,27.01
2023-07-11T06:34:48.154Z,27.01
2023-07-11T06:35:19.586Z,27.08
2023-07-11T06:35:51.049Z,27.05
2023-07-11T06:36:22.505Z,27.07
2023-07-11T06:36:54.096Z,27.01
2023-07-11T06:37:25.533Z,26.99
2023-07-11T06:37:56.960Z,26.98
2023-07-11T06:38:28.356Z,26.99
2023-07-11T06:38:59.817Z,27.00
2023-07-11T06:39:31.227Z,26.97
2023-07-11T06:40:02.740Z,27.03
2023-07-11T06:40:34.169Z,27.04
2023-07-11T06:41:05.940Z,27.07
2023-07-11T06:41:37.767Z,27.02
2023-07-11T06:42:09.226Z,27.02
2023-07-11T06:42:40.670Z,27.03
2023-07-11T06:43:12.127Z,27.02
2023-07-11T06:43:43.532Z,26.99
2023-07-11T06:44:15.067Z,27.00
2023-07-11T06:44:46.495Z,27.02
2023-07-11T06:45:17.909Z,27.02
2023-07-11T06:45:49.444Z,27.02
2023-07-11T06:46:21.018Z,26.99